createdAt,value
2019-02-23T00:02:24.937Z,6.60
2019-02-23T00:05:04.432Z,6.60
2019-02-23T00:07:45.888Z,6.60
2019-02-23T00:10:21.939Z,6.60
2019-02-23T00:12:55.641Z,6.60
2019-02-23T00:15:34.869Z,6.50
2019-02-23T00:18:12.813Z,6.60
2019-02-23T00:20:47.913Z,6.60
2019-02-23T00:23:24.624Z,6.60
2019-02-23T00:25:54.932Z,6.60
2019-02-23T00:28:27.556Z,6.60
2019-02-23T00:34:08.853Z,6.70
2019-02-23T00:36:51.968Z,6.80
2019-02-23T00:39:28.778Z,6.70
2019-02-23T00:42:05.646Z,6.70
2019-02-23T00:44:36.819Z,6.70
2019-02-23T00:47:09.764Z,6.60
2019-02-23T00:49:37.943Z,6.60
2019-02-23T00:52:18.316Z,6.60
2019-02-23T00:55:10.204Z,6.70
2019-02-23T00:57:45.471Z,6.50
2019-02-23T01:03:04.548Z,6.40
2019-02-23T01:05:42.726Z,6.30
2019-02-23T01:08:21.647Z,6.30
2019-02-23T01:10:57.729Z,6.30
2019-02-23T01:13:19.526Z,6.30
2019-02-23T01:15:48.411Z,6.20
2019-02-23T01:18:17.157Z,6.20
2019-02-23T01:20:45.506Z,6.20
2019-02-23T01:23:13.874Z,6.10
2019-02-23T01:25:44.180Z,6.00
2019-02-23T01:28:30.969Z,6.00
2019-02-23T01:31:09.542Z,5.90
2019-02-23T01:34:18.885Z,5.90
2019-02-23T01:36:57.645Z,6.00
2019-02-23T01:39:30.794Z,6.00
2019-02-23T01:42:02.164Z,6.00
2019-02-23T01:44:30.243Z,6.10
2019-02-23T01:47:08.703Z,6.10
2019-02-23T01:49:59.008Z,6.20
2019-02-23T01:52:23.069Z,6.20
2019-02-23T01:54:52.197Z,6.20
2019-02-23T01:57:21.296Z,6.20
2019-02-23T01:59:50.888Z,6.20
2019-02-23T02:02:21.221Z,6.20
2019-02-23T02:05:01.806Z,6.20
2019-02-23T02:07:30.212Z,6.20
2019-02-23T02:09:58.914Z,6.20
2019-02-23T02:12:37.285Z,6.20
2019-02-23T02:15:13.703Z,6.20
2019-02-23T02:17:48.822Z,6.20
2019-02-23T02:20:18.236Z,6.10
2019-02-23T02:22:54.736Z,6.00
2019-02-23T02:25:26.487Z,5.70
2019-02-23T02:27:56.234Z,5.50
2019-02-23T02:30:26.476Z,5.50
2019-02-23T02:32:55.178Z,5.50
2019-02-23T02:35:25.840Z,5.50
2019-02-23T02:37:53.928Z,5.50
2019-02-23T02:40:25.287Z,5.60
2019-02-23T02:42:53.254Z,5.50
2019-02-23T02:45:21.078Z,5.50
2019-02-23T02:47:49.122Z,5.40
2019-02-23T02:50:24.281Z,5.50
2019-02-23T02:52:46.933Z,5.40
2019-02-23T02:55:15.248Z,5.20
2019-02-23T02:57:43.064Z,4.90
2019-02-23T03:00:12.889Z,4.90
2019-02-23T03:02:41.454Z,4.70
2019-02-23T03:05:09.985Z,4.80
2019-02-23T03:07:40.907Z,4.90
2019-02-23T03:10:09.309Z,5.10
2019-02-23T03:12:44.928Z,5.10
2019-02-23T03:15:12.904Z,5.00
2019-02-23T03:17:44.039Z,5.10
2019-02-23T03:20:12.100Z,5.10
2019-02-23T03:22:49.521Z,5.10
2019-02-23T03:25:18.317Z,5.00
2019-02-23T03:27:51.140Z,4.90
2019-02-23T03:30:19.624Z,4.90
2019-02-23T03:32:48.063Z,5.10
2019-02-23T03:35:16.304Z,5.10
2019-02-23T03:37:44.774Z,5.20
2019-02-23T03:40:14.694Z,5.20
2019-02-23T03:42:50.742Z,5.30
2019-02-23T03:45:22.112Z,5.30
2019-02-23T03:47:50.284Z,5.40
2019-02-23T03:50:18.628Z,5.10
2019-02-23T03:52:49.532Z,5.00
2019-02-23T03:55:17.689Z,5.10
2019-02-23T03:57:54.069Z,5.00
2019-02-23T04:00:25.840Z,5.00
2019-02-23T04:02:58.520Z,4.90
2019-02-23T04:05:30.234Z,4.90
2019-02-23T04:08:01.946Z,4.80
2019-02-23T04:10:30.019Z,4.60
2019-02-23T04:13:00.367Z,4.60
2019-02-23T04:15:36.123Z,4.50
2019-02-23T04:18:09.937Z,4.30
2019-02-23T04:20:38.384Z,4.30
2019-02-23T04:23:08.721Z,4.10
2019-02-23T04:25:39.366Z,4.10
2019-02-23T04:28:08.178Z,3.90
2019-02-23T04:30:39.883Z,3.80
2019-02-23T04:33:32.964Z,3.80
2019-02-23T04:36:05.733Z,3.90
2019-02-23T04:38:36.485Z,3.90
2019-02-23T04:41:04.931Z,3.90
2019-02-23T04:43:37.566Z,3.70
2019-02-23T04:46:10.400Z,3.70
2019-02-23T04:48:45.390Z,3.60
2019-02-23T04:51:15.793Z,3.60
2019-02-23T04:53:44.610Z,3.70
2019-02-23T04:56:21.894Z,3.80
2019-02-23T04:58:54.180Z,3.80
2019-02-23T05:01:23.556Z,3.70
2019-02-23T05:03:56.726Z,3.60
2019-02-23T05:06:30.997Z,3.60
2019-02-23T05:09:09.436Z,3.60
2019-02-23T05:11:38.082Z,3.40
2019-02-23T05:14:21.978Z,3.20
2019-02-23T05:16:52.383Z,3.40
2019-02-23T05:19:22.973Z,3.50
2019-02-23T05:22:02.980Z,3.40
2019-02-23T05:24:31.140Z,3.40
2019-02-23T05:27:00.505Z,3.30
2019-02-23T05:29:31.179Z,3.20
2019-02-23T05:32:00.452Z,3.10
2019-02-23T05:34:29.389Z,3.00
2019-02-23T05:36:57.236Z,2.90
2019-02-23T05:39:26.565Z,3.00
2019-02-23T05:41:54.700Z,3.10
2019-02-23T05:44:22.737Z,3.10
2019-02-23T05:46:53.920Z,3.10
2019-02-23T05:49:22.244Z,3.00
2019-02-23T05:51:53.428Z,3.10
2019-02-23T05:54:29.917Z,3.10
2019-02-23T05:57:02.420Z,3.00
2019-02-23T05:59:28.509Z,3.00
2019-02-23T06:01:56.790Z,2.90
2019-02-23T06:04:29.996Z,3.00
2019-02-23T06:06:58.505Z,3.10
2019-02-23T06:09:27.229Z,3.10
2019-02-23T06:11:59.102Z,3.00
2019-02-23T06:14:32.840Z,3.10
2019-02-23T06:17:18.888Z,3.10
2019-02-23T06:20:04.475Z,3.10
2019-02-23T06:22:32.498Z,3.10
2019-02-23T06:25:19.478Z,3.10
2019-02-23T06:27:47.414Z,3.10
2019-02-23T06:30:39.360Z,3.00
2019-02-23T06:33:05.286Z,2.90
2019-02-23T06:35:44.774Z,2.80
2019-02-23T06:38:16.197Z,2.80
2019-02-23T06:41:04.005Z,2.90
2019-02-23T06:43:32.215Z,2.80
2019-02-23T06:46:19.832Z,2.90
2019-02-23T06:48:54.671Z,3.00
2019-02-23T06:51:33.958Z,3.00
2019-02-23T06:54:02.033Z,3.10
2019-02-23T06:56:30.067Z,3.20
2019-02-23T06:59:05.711Z,3.20
2019-02-23T07:01:34.914Z,3.20
2019-02-23T07:04:04.239Z,3.10
2019-02-23T07:06:41.045Z,3.20
2019-02-23T07:09:09.135Z,3.50
2019-02-23T07:11:37.057Z,3.70
2019-02-23T07:14:08.072Z,3.80
2019-02-23T07:16:35.620Z,3.90
2019-02-23T07:19:05.999Z,3.90
2019-02-23T07:21:37.476Z,3.90
2019-02-23T07:24:05.521Z,3.90
2019-02-23T07:26:33.194Z,3.90
2019-02-23T07:29:01.611Z,4.00
2019-02-23T07:31:29.498Z,4.10
2019-02-23T07:34:00.140Z,4.10
2019-02-23T07:36:27.944Z,3.90
2019-02-23T07:38:55.689Z,3.70
2019-02-23T07:41:23.684Z,3.60
2019-02-23T07:43:51.578Z,3.60
2019-02-23T07:46:19.594Z,3.70
2019-02-23T07:48:47.522Z,3.80
2019-02-23T07:51:16.861Z,3.80
2019-02-23T07:53:44.775Z,3.80
2019-02-23T07:56:15.027Z,3.90
2019-02-23T07:58:44.811Z,4.10
2019-02-23T08:01:12.295Z,4.20
2019-02-23T08:08:21.902Z,4.50
2019-02-23T08:31:46.352Z,5.00
2019-02-23T08:37:45.812Z,5.40
2019-02-23T08:42:48.805Z,5.80
2019-02-23T08:46:18.349Z,6.20
2019-02-23T08:48:45.876Z,6.40
2019-02-23T08:51:40.170Z,6.20
2019-02-23T08:54:08.500Z,6.20
2019-02-23T08:56:57.462Z,6.20
2019-02-23T08:59:41.144Z,6.30
2019-02-23T09:02:34.269Z,6.30
2019-02-23T09:05:06.203Z,6.30
2019-02-23T09:07:46.043Z,6.30
2019-02-23T09:10:14.478Z,6.50
2019-02-23T09:12:42.661Z,6.60
2019-02-23T09:15:10.608Z,6.70
2019-02-23T09:17:39.651Z,6.90
2019-02-23T09:20:09.807Z,6.80
2019-02-23T09:22:37.689Z,6.90
2019-02-23T09:25:06.084Z,6.70
2019-02-23T09:27:38.118Z,6.70
2019-02-23T09:30:11.242Z,6.80
2019-02-23T09:32:39.481Z,6.90
2019-02-23T09:35:07.052Z,7.00
2019-02-23T09:37:40.543Z,6.90
2019-02-23T09:40:09.048Z,6.90
2019-02-23T09:42:36.959Z,6.90
2019-02-23T09:45:05.196Z,6.90
2019-02-23T09:47:32.990Z,7.10
2019-02-23T09:50:00.440Z,7.00
2019-02-23T09:52:27.952Z,6.80
2019-02-23T09:55:01.703Z,6.90
2019-02-23T09:57:29.243Z,7.00
2019-02-23T09:59:56.741Z,7.00
2019-02-23T10:02:24.204Z,7.10
2019-02-23T10:04:52.012Z,7.00
2019-02-23T10:07:19.487Z,7.00
2019-02-23T10:09:47.231Z,7.10
2019-02-23T10:12:14.768Z,7.40
2019-02-23T10:14:42.255Z,7.30
2019-02-23T10:17:09.749Z,7.40
2019-02-23T10:19:37.199Z,7.40
2019-02-23T10:22:04.688Z,7.40
2019-02-23T10:24:33.471Z,7.40
2019-02-23T10:27:00.984Z,7.50
2019-02-23T10:29:28.451Z,7.60
2019-02-23T10:31:55.964Z,7.80
2019-02-23T10:34:23.709Z,8.00
2019-02-23T10:36:51.817Z,7.70
2019-02-23T10:39:19.579Z,7.80
2019-02-23T10:41:47.060Z,8.00
2019-02-23T10:44:14.515Z,8.10
2019-02-23T10:46:49.075Z,8.00
2019-02-23T10:49:16.539Z,8.00
2019-02-23T10:51:43.999Z,8.10
2019-02-23T10:54:14.000Z,8.20
2019-02-23T10:56:41.488Z,8.50
2019-02-23T10:59:09.056Z,8.90
2019-02-23T11:01:36.526Z,8.80
2019-02-23T11:04:04.016Z,8.50
2019-02-23T11:06:31.443Z,8.30
2019-02-23T11:08:58.925Z,8.20
2019-02-23T11:11:26.395Z,8.20
2019-02-23T11:13:53.901Z,8.30
2019-02-23T11:16:21.347Z,8.60
2019-02-23T11:18:48.841Z,8.80
2019-02-23T11:21:16.325Z,8.80
2019-02-23T11:23:44.655Z,8.70
2019-02-23T11:26:12.276Z,8.70
2019-02-23T11:28:39.776Z,8.60
2019-02-23T11:31:07.228Z,8.40
2019-02-23T11:33:34.710Z,8.50
2019-02-23T11:36:02.161Z,8.40
2019-02-23T11:38:29.643Z,8.40
2019-02-23T11:40:57.314Z,8.50
2019-02-23T11:43:25.056Z,8.80
2019-02-23T11:45:52.788Z,8.90
2019-02-23T11:48:20.271Z,9.00
2019-02-23T11:50:48.227Z,9.20
2019-02-23T11:53:16.058Z,9.10
2019-02-23T11:55:43.578Z,9.00
2019-02-23T11:58:11.051Z,8.90
2019-02-23T12:00:44.587Z,8.90
2019-02-23T12:03:12.465Z,9.00
2019-02-23T12:05:39.897Z,9.20
2019-02-23T12:08:07.376Z,9.30
2019-02-23T12:10:34.838Z,9.30
2019-02-23T12:13:02.540Z,9.20
2019-02-23T12:15:30.302Z,9.30
2019-02-23T12:17:57.891Z,9.30
2019-02-23T12:20:25.355Z,9.40
2019-02-23T12:22:52.848Z,9.50
2019-02-23T12:25:20.307Z,9.50
2019-02-23T12:27:47.918Z,9.50
2019-02-23T12:30:15.561Z,9.50
2019-02-23T12:32:43.087Z,9.50
2019-02-23T12:35:11.484Z,9.60
2019-02-23T12:37:41.040Z,9.60
2019-02-23T12:40:09.515Z,9.70
2019-02-23T12:42:37.311Z,9.60
2019-02-23T12:45:05.115Z,9.60
2019-02-23T12:47:33.073Z,9.40
2019-02-23T12:50:00.573Z,9.40
2019-02-23T12:52:28.020Z,9.30
2019-02-23T12:54:55.521Z,9.40
2019-02-23T12:57:22.992Z,9.50
2019-02-23T12:59:50.471Z,9.60
2019-02-23T13:02:21.040Z,9.80
2019-02-23T13:04:49.767Z,9.90
2019-02-23T13:07:17.268Z,10.00
2019-02-23T13:09:52.817Z,9.90
2019-02-23T13:13:08.595Z,9.90
2019-02-23T13:15:56.277Z,9.90
2019-02-23T13:18:46.393Z,10.00
2019-02-23T13:21:36.965Z,9.90
2019-02-23T13:24:28.439Z,9.80
2019-02-23T13:27:36.749Z,9.70
2019-02-23T13:30:31.737Z,9.70
2019-02-23T13:33:46.584Z,9.90
2019-02-23T13:36:47.047Z,10.00
2019-02-23T13:39:51.953Z,10.10
2019-02-23T13:43:01.563Z,10.10
2019-02-23T13:46:12.531Z,9.90
2019-02-23T13:49:26.620Z,10.00
2019-02-23T13:52:51.229Z,9.90
2019-02-23T13:56:02.483Z,9.80
2019-02-23T13:59:18.582Z,9.90
2019-02-23T14:02:22.193Z,9.90
2019-02-23T14:05:45.883Z,10.00
2019-02-23T14:08:43.726Z,9.90
2019-02-23T14:11:44.536Z,10.00
2019-02-23T14:14:43.459Z,10.00
2019-02-23T14:17:59.317Z,10.10
2019-02-23T14:21:09.261Z,10.00
2019-02-23T14:24:14.898Z,10.00
2019-02-23T14:27:18.029Z,9.90
2019-02-23T14:30:42.563Z,10.00
2019-02-23T14:33:55.352Z,10.00
2019-02-23T14:36:46.310Z,10.00
2019-02-23T14:39:49.813Z,10.00
2019-02-23T14:43:01.198Z,10.10
2019-02-23T14:46:09.072Z,10.10
2019-02-23T14:49:09.801Z,10.10
2019-02-23T14:52:11.267Z,10.00
2019-02-23T14:55:28.435Z,10.00
2019-02-23T14:58:52.127Z,9.90
2019-02-23T15:02:03.661Z,9.80
2019-02-23T15:04:57.612Z,9.70
2019-02-23T15:08:22.411Z,9.70
2019-02-23T15:11:26.900Z,9.60
2019-02-23T15:14:31.169Z,9.60
2019-02-23T15:17:37.209Z,9.60
2019-02-23T15:20:37.781Z,9.70
2019-02-23T15:23:15.704Z,9.70
2019-02-23T15:26:21.836Z,9.60
2019-02-23T15:29:24.493Z,9.60
2019-02-23T15:32:12.197Z,9.40
2019-02-23T15:35:17.097Z,9.40
2019-02-23T15:38:45.474Z,9.40
2019-02-23T15:41:41.050Z,9.40
2019-02-23T15:44:41.205Z,9.50
2019-02-23T15:47:49.169Z,9.30
2019-02-23T15:50:17.520Z,9.30
2019-02-23T15:52:45.937Z,9.30
2019-02-23T15:55:25.332Z,9.30
2019-02-23T15:57:43.144Z,9.20
2019-02-23T16:00:11.066Z,9.20
2019-02-23T16:02:38.644Z,9.10
2019-02-23T16:05:06.833Z,9.10
2019-02-23T16:07:34.414Z,9.20
2019-02-23T16:10:02.436Z,9.10
2019-02-23T16:12:30.030Z,9.20
2019-02-23T16:14:57.606Z,9.20
2019-02-23T16:17:25.255Z,9.00
2019-02-23T16:19:52.841Z,8.90
2019-02-23T16:22:20.779Z,9.00
2019-02-23T16:24:50.710Z,8.90
2019-02-23T16:27:21.388Z,8.80
2019-02-23T16:29:49.171Z,8.60
2019-02-23T16:32:22.665Z,8.70
2019-02-23T16:34:52.257Z,8.60
2019-02-23T16:37:20.408Z,8.60
2019-02-23T16:40:04.132Z,8.50
2019-02-23T16:42:34.552Z,8.50
2019-02-23T16:45:04.910Z,8.40
2019-02-23T16:47:32.680Z,8.40
2019-02-23T16:50:00.595Z,8.30
2019-02-23T16:52:28.344Z,8.30
2019-02-23T16:55:00.144Z,8.40
2019-02-23T16:57:36.251Z,8.30
2019-02-23T17:00:05.172Z,8.20
2019-02-23T17:02:35.858Z,8.10
2019-02-23T17:05:02.525Z,8.10
2019-02-23T17:07:30.162Z,8.00
2019-02-23T17:10:02.786Z,8.00
2019-02-23T17:12:31.473Z,7.90
2019-02-23T17:14:59.223Z,7.90
2019-02-23T17:17:26.822Z,7.90
2019-02-23T17:19:56.657Z,7.90
2019-02-23T17:22:39.076Z,7.90
2019-02-23T17:25:07.313Z,7.90
2019-02-23T17:27:36.683Z,7.90
2019-02-23T17:30:05.234Z,7.80
2019-02-23T17:32:37.191Z,7.80
2019-02-23T17:35:09.767Z,7.80
2019-02-23T17:44:53.787Z,7.80
2019-02-23T17:47:21.820Z,7.80
2019-02-23T17:50:05.300Z,7.90
2019-02-23T17:52:44.765Z,7.90
2019-02-23T17:55:39.480Z,7.80
2019-02-23T17:58:10.750Z,7.60
2019-02-23T18:00:58.809Z,7.60
2019-02-23T18:03:30.095Z,7.60
2019-02-23T18:06:03.458Z,7.50
2019-02-23T18:08:35.659Z,7.40
2019-02-23T18:11:20.409Z,7.40
2019-02-23T18:13:49.096Z,7.30
2019-02-23T18:16:17.259Z,7.30
2019-02-23T18:18:45.106Z,7.30
2019-02-23T18:21:14.049Z,7.10
2019-02-23T18:23:42.210Z,6.90
2019-02-23T18:26:09.990Z,6.90
2019-02-23T18:28:38.096Z,7.00
2019-02-23T18:31:08.036Z,7.00
2019-02-23T18:33:36.828Z,6.90
2019-02-23T18:36:11.020Z,6.70
2019-02-23T18:38:40.009Z,6.80
2019-02-23T18:41:08.776Z,6.70
2019-02-23T18:43:38.018Z,6.60
2019-02-23T18:46:07.337Z,6.60
2019-02-23T18:48:38.969Z,6.70
2019-02-23T18:51:29.136Z,6.40
2019-02-23T18:53:59.538Z,6.50
2019-02-23T18:56:40.543Z,6.40
2019-02-23T19:13:43.335Z,5.90
2019-02-23T19:16:11.284Z,5.80
2019-02-23T19:18:39.421Z,5.80
2019-02-23T19:21:15.382Z,5.70
2019-02-23T19:23:46.834Z,5.80
2019-02-23T19:26:38.083Z,5.80
2019-02-23T19:29:22.069Z,5.80
2019-02-23T19:32:38.220Z,5.70
2019-02-23T19:38:45.955Z,5.40
2019-02-23T19:47:42.724Z,5.40
2019-02-23T19:54:54.262Z,5.30
2019-02-23T20:02:20.974Z,5.30
2019-02-23T20:08:29.543Z,5.30
2019-02-23T20:11:05.265Z,5.30
2019-02-23T20:13:36.439Z,5.40
2019-02-23T20:16:05.142Z,5.40
2019-02-23T20:21:22.846Z,5.60
2019-02-23T20:23:52.127Z,5.60
2019-02-23T20:26:21.840Z,5.70
2019-02-23T20:28:50.686Z,5.60
2019-02-23T20:31:23.812Z,5.70
2019-02-23T20:33:52.085Z,5.70
2019-02-23T20:36:22.303Z,5.60
2019-02-23T20:38:57.588Z,5.40
2019-02-23T20:41:29.800Z,5.20
2019-02-23T20:44:18.557Z,5.20
2019-02-23T20:46:49.111Z,5.00
2019-02-23T20:49:17.066Z,5.10
2019-02-23T20:51:51.076Z,5.20
2019-02-23T20:54:23.180Z,5.10
2019-02-23T20:57:05.142Z,4.90
2019-02-23T20:59:34.784Z,4.90
2019-02-23T21:02:02.911Z,4.80
2019-02-23T21:04:31.213Z,4.60
2019-02-23T21:07:01.879Z,4.60
2019-02-23T21:09:32.630Z,4.60
2019-02-23T21:12:01.631Z,4.50
2019-02-23T21:14:35.330Z,4.50
2019-02-23T21:17:08.714Z,4.60
2019-02-23T21:19:44.627Z,4.70
2019-02-23T21:22:17.147Z,4.70
2019-02-23T21:24:45.457Z,4.50
2019-02-23T21:27:17.093Z,4.60
2019-02-23T21:29:54.836Z,4.60
2019-02-23T21:32:35.234Z,4.50
2019-02-23T21:35:13.055Z,4.50
2019-02-23T21:37:46.489Z,4.40
2019-02-23T21:40:14.828Z,4.40
2019-02-23T21:42:43.279Z,4.20
2019-02-23T21:45:15.342Z,4.10
2019-02-23T21:47:48.449Z,4.30
2019-02-23T21:50:16.004Z,4.30
2019-02-23T21:53:16.667Z,4.30
2019-02-23T21:55:45.104Z,4.20
2019-02-23T21:58:15.143Z,4.30
2019-02-23T22:00:42.850Z,4.30
2019-02-23T22:03:10.675Z,4.20
2019-02-23T22:05:43.190Z,4.10
2019-02-23T22:08:10.992Z,4.10
2019-02-23T22:10:38.716Z,4.20
2019-02-23T22:13:06.438Z,4.00
2019-02-23T22:15:35.233Z,4.10
2019-02-23T22:18:03.322Z,4.00
2019-02-23T22:20:30.977Z,4.10
2019-02-23T22:22:58.788Z,4.10
2019-02-23T22:25:26.538Z,4.20
2019-02-23T22:27:54.517Z,4.30
2019-02-23T22:30:22.181Z,4.30
2019-02-23T22:32:50.058Z,4.30
2019-02-23T22:35:18.206Z,4.00
2019-02-23T22:37:45.724Z,3.90
2019-02-23T22:40:13.832Z,3.80
2019-02-23T22:42:41.604Z,3.70
2019-02-23T22:45:09.426Z,3.60
2019-02-23T22:47:37.065Z,3.70
2019-02-23T22:50:04.746Z,3.70
2019-02-23T22:52:32.317Z,3.90
2019-02-23T22:55:00.266Z,4.00
2019-02-23T22:57:27.940Z,4.00
2019-02-23T22:59:55.693Z,4.00
2019-02-23T23:02:23.966Z,4.00
2019-02-23T23:04:51.604Z,4.10
2019-02-23T23:07:19.131Z,4.10
2019-02-23T23:09:46.783Z,3.90
2019-02-23T23:12:14.601Z,3.90
2019-02-23T23:14:42.165Z,3.80
2019-02-23T23:17:10.447Z,3.60
2019-02-23T23:19:38.297Z,3.70
2019-02-23T23:22:06.174Z,3.70
2019-02-23T23:24:33.983Z,3.70
2019-02-23T23:27:02.111Z,3.60
2019-02-23T23:29:30.036Z,3.70
2019-02-23T23:31:58.021Z,3.70
2019-02-23T23:34:25.858Z,3.70
2019-02-23T23:36:53.530Z,3.70
2019-02-23T23:39:21.856Z,3.70
2019-02-23T23:41:49.699Z,3.80
2019-02-23T23:44:17.624Z,3.80
2019-02-23T23:46:45.432Z,3.80
2019-02-23T23:49:13.248Z,3.80
2019-02-23T23:51:41.008Z,3.70
2019-02-23T23:54:08.864Z,3.70
2019-02-23T23:56:36.517Z,3.70
2019-02-23T23:59:04.157Z,3.70
